createdAt,value
2022-11-10T00:00:01.052Z,1014.85
2022-11-10T00:01:01.106Z,1014.87
2022-11-10T00:02:01.098Z,1014.92
2022-11-10T00:03:01.505Z,1014.91
2022-11-10T00:04:01.252Z,1014.88
2022-11-10T00:05:01.563Z,1014.9
2022-11-10T00:06:01.152Z,1014.86
2022-11-10T00:07:01.198Z,1014.86
2022-11-10T00:08:01.782Z,1014.84
2022-11-10T00:09:01.952Z,1014.84
2022-11-10T00:10:01.935Z,1014.91
2022-11-10T00:11:01.064Z,1014.97
2022-11-10T00:12:01.076Z,1014.9
2022-11-10T00:13:01.119Z,1014.94
2022-11-10T00:14:01.077Z,1014.95
2022-11-10T00:15:01.538Z,1014.93
2022-11-10T00:16:01.095Z,1014.97
2022-11-10T00:17:03.851Z,1014.97
2022-11-10T00:18:01.397Z,1015.01
2022-11-10T00:19:02.334Z,1015.05
2022-11-10T00:20:02.124Z,1015.05
2022-11-10T00:21:01.184Z,1015.06
2022-11-10T00:22:01.116Z,1015.05
2022-11-10T00:23:01.125Z,1015.08
2022-11-10T00:24:01.337Z,1015.05
2022-11-10T00:25:01.152Z,1015.1
2022-11-10T00:26:01.543Z,1015.11
2022-11-10T00:27:01.585Z,1015.07
2022-11-10T00:28:02.131Z,1015.06
2022-11-10T00:29:01.745Z,1015.1
2022-11-10T00:30:01.484Z,1015.08
2022-11-10T00:31:01.092Z,1015.08
2022-11-10T00:32:01.131Z,1015.05
2022-11-10T00:33:01.374Z,1015.14
2022-11-10T00:34:02.125Z,1015.15
2022-11-10T00:35:01.159Z,1015.12
2022-11-10T00:36:01.133Z,1015.13
2022-11-10T00:37:01.384Z,1015.15
2022-11-10T00:38:02.571Z,1015.14
2022-11-10T00:39:02.477Z,1015.14
2022-11-10T00:40:01.178Z,1015.17
2022-11-10T00:41:01.722Z,1015.15
2022-11-10T00:42:01.418Z,1015.17
2022-11-10T00:43:02.156Z,1015.14
2022-11-10T00:44:02.260Z,1015.19
2022-11-10T00:45:01.087Z,1015.2
2022-11-10T00:46:01.070Z,1015.19
2022-11-10T00:47:01.094Z,1015.21
2022-11-10T00:48:01.506Z,1015.25
2022-11-10T00:49:01.578Z,1015.25
2022-11-10T00:50:01.190Z,1015.28
2022-11-10T00:51:03.971Z,1015.34
2022-11-10T00:52:01.521Z,1015.35
2022-11-10T00:53:00.706Z,1015.35
2022-11-10T00:54:00.408Z,1015.35
2022-11-10T00:55:00.116Z,1015.35
2022-11-10T00:55:59.870Z,1015.35
2022-11-10T00:57:01.558Z,1015.38
2022-11-10T00:58:01.340Z,1015.37
2022-11-10T00:59:01.987Z,1015.42
2022-11-10T01:00:02.123Z,1015.48
2022-11-10T01:01:02.942Z,1015.42
2022-11-10T01:02:01.074Z,1015.51
2022-11-10T01:03:01.089Z,1015.47
2022-11-10T01:04:01.089Z,1015.47
2022-11-10T01:05:01.093Z,1015.49
2022-11-10T01:06:05.487Z,1015.53
2022-11-10T01:07:01.189Z,1015.5
2022-11-10T01:08:01.509Z,1015.55
2022-11-10T01:09:01.538Z,1015.55
2022-11-10T01:10:00.998Z,1015.56
2022-11-10T01:11:08.627Z,1015.56
2022-11-10T01:12:01.186Z,1015.55
2022-11-10T01:13:01.152Z,1015.57
2022-11-10T01:14:01.353Z,1015.6
2022-11-10T01:15:01.205Z,1015.55
2022-11-10T01:16:11.309Z,1015.55
2022-11-10T01:17:02.612Z,1015.59
2022-11-10T01:18:01.059Z,1015.61
2022-11-10T01:19:01.107Z,1015.61
2022-11-10T01:20:01.096Z,1015.63
2022-11-10T01:21:14.387Z,1015.61
2022-11-10T01:22:01.814Z,1015.59
2022-11-10T01:23:01.051Z,1015.65
2022-11-10T01:24:01.048Z,1015.65
2022-11-10T01:25:01.080Z,1015.64
2022-11-10T01:26:25.096Z,1015.66
2022-11-10T01:27:01.139Z,1015.67
2022-11-10T01:28:01.753Z,1015.68
2022-11-10T01:29:01.148Z,1015.65
2022-11-10T01:30:00.796Z,1015.69
2022-11-10T01:31:00.542Z,1015.66
2022-11-10T01:32:00.161Z,1015.72
2022-11-10T01:32:59.814Z,1015.69
2022-11-10T01:34:02.872Z,1015.71
2022-11-10T01:35:02.163Z,1015.79
2022-11-10T01:36:02.017Z,1015.7
2022-11-10T01:37:01.098Z,1015.75
2022-11-10T01:38:01.108Z,1015.77
2022-11-10T01:39:01.116Z,1015.76
2022-11-10T01:40:01.329Z,1015.72
2022-11-10T01:41:01.348Z,1015.76
2022-11-10T01:42:01.136Z,1015.76
2022-11-10T01:43:01.136Z,1015.79
2022-11-10T01:44:01.142Z,1015.82
2022-11-10T01:45:01.139Z,1015.79
2022-11-10T01:46:01.178Z,1015.82
2022-11-10T01:47:01.078Z,1015.83
2022-11-10T01:48:01.083Z,1015.88
2022-11-10T01:49:01.453Z,1015.86
2022-11-10T01:50:01.095Z,1015.85
2022-11-10T01:51:01.278Z,1015.85
2022-11-10T01:52:01.165Z,1015.82
2022-11-10T01:53:01.116Z,1015.84
2022-11-10T01:54:02.420Z,1015.83
2022-11-10T01:55:01.956Z,1015.89
2022-11-10T01:56:02.135Z,1015.89
2022-11-10T01:57:01.512Z,1015.93
2022-11-10T01:58:01.151Z,1015.92
2022-11-10T01:59:01.847Z,1015.92
2022-11-10T02:00:01.604Z,1015.88
2022-11-10T02:01:01.227Z,1015.88
2022-11-10T02:02:01.190Z,1015.85
2022-11-10T02:03:01.272Z,1015.85
2022-11-10T02:04:01.318Z,1015.83
2022-11-10T02:05:01.864Z,1015.81
2022-11-10T02:06:02.101Z,1015.85
2022-11-10T02:07:00.759Z,1015.86
2022-11-10T02:08:00.363Z,1015.86
2022-11-10T02:09:01.083Z,1015.83
2022-11-10T02:10:01.802Z,1015.88
2022-11-10T02:11:01.104Z,1015.9
2022-11-10T02:12:01.539Z,1015.89
2022-11-10T02:13:01.121Z,1015.93
2022-11-10T02:14:01.428Z,1015.91
2022-11-10T02:15:01.205Z,1015.92
2022-11-10T02:16:01.143Z,1015.92
2022-11-10T02:17:01.172Z,1015.93
2022-11-10T02:18:01.147Z,1015.92
2022-11-10T02:19:01.198Z,1015.95
2022-11-10T02:20:01.245Z,1016.02
2022-11-10T02:21:01.263Z,1016.01
2022-11-10T02:22:01.093Z,1016.02
2022-11-10T02:23:01.059Z,1015.97
2022-11-10T02:24:01.098Z,1015.98
2022-11-10T02:25:01.085Z,1016.04
2022-11-10T02:26:01.774Z,1016.04
2022-11-10T02:27:01.600Z,1016.02
2022-11-10T02:28:02.147Z,1016
2022-11-10T02:29:01.541Z,1016.1
2022-11-10T02:30:01.246Z,1016.03
2022-11-10T02:31:01.145Z,1016.12
2022-11-10T02:32:00.631Z,1016.13
2022-11-10T02:33:00.219Z,1016.17
2022-11-10T02:34:00.367Z,1016.15
2022-11-10T02:35:00.185Z,1016.14
2022-11-10T02:35:59.940Z,1016.15
2022-11-10T02:37:01.523Z,1016.21
2022-11-10T02:38:01.093Z,1016.22
2022-11-10T02:39:01.915Z,1016.29
2022-11-10T02:40:01.058Z,1016.32
2022-11-10T02:41:01.096Z,1016.33
2022-11-10T02:42:03.588Z,1016.34
2022-11-10T02:43:01.107Z,1016.36
2022-11-10T02:44:02.050Z,1016.39
2022-11-10T02:45:01.116Z,1016.37
2022-11-10T02:46:01.141Z,1016.37
2022-11-10T02:47:05.497Z,1016.38
2022-11-10T02:48:01.535Z,1016.42
2022-11-10T02:49:01.149Z,1016.44
2022-11-10T02:50:01.176Z,1016.45
2022-11-10T02:51:01.173Z,1016.43
2022-11-10T02:52:09.253Z,1016.48
2022-11-10T02:53:01.077Z,1016.5
2022-11-10T02:54:00.450Z,1016.51
2022-11-10T02:55:00.039Z,1016.56
2022-11-10T02:55:59.940Z,1016.52
2022-11-10T02:57:10.221Z,1016.55
2022-11-10T02:58:01.498Z,1016.55
2022-11-10T02:59:00.898Z,1016.59
2022-11-10T03:00:01.183Z,1016.61
2022-11-10T03:01:01.244Z,1016.6
2022-11-10T03:02:15.042Z,1016.64
2022-11-10T03:03:02.575Z,1016.67
2022-11-10T03:04:01.137Z,1016.65
2022-11-10T03:05:01.314Z,1016.64
2022-11-10T03:06:01.337Z,1016.65
2022-11-10T03:07:16.925Z,1016.63
2022-11-10T03:08:01.941Z,1016.64
2022-11-10T03:09:01.084Z,1016.7
2022-11-10T03:10:01.167Z,1016.72
2022-11-10T03:11:01.060Z,1016.78
2022-11-10T03:12:01.098Z,1016.72
2022-11-10T03:13:01.102Z,1016.74
2022-11-10T03:14:02.697Z,1016.76
2022-11-10T03:15:04.065Z,1016.77
2022-11-10T03:16:01.111Z,1016.74
2022-11-10T03:17:01.058Z,1016.8
2022-11-10T03:18:01.573Z,1016.85
2022-11-10T03:19:00.812Z,1016.84
2022-11-10T03:20:00.530Z,1016.87
2022-11-10T03:21:00.218Z,1016.9
2022-11-10T03:21:59.864Z,1016.88
2022-11-10T03:23:01.165Z,1016.88
2022-11-10T03:24:01.059Z,1016.91
2022-11-10T03:25:01.072Z,1016.92
2022-11-10T03:26:01.466Z,1016.96
2022-11-10T03:27:01.119Z,1016.97
2022-11-10T03:28:01.252Z,1017.01
2022-11-10T03:29:01.138Z,1016.98
2022-11-10T03:30:02.352Z,1017
2022-11-10T03:31:01.129Z,1017.04
2022-11-10T03:32:01.131Z,1017.08
2022-11-10T03:33:01.234Z,1017.11
2022-11-10T03:34:01.120Z,1017.12
2022-11-10T03:35:01.189Z,1017.14
2022-11-10T03:36:01.181Z,1017.15
2022-11-10T03:37:01.177Z,1017.18
2022-11-10T03:38:01.165Z,1017.15
2022-11-10T03:39:01.164Z,1017.15
2022-11-10T03:40:01.058Z,1017.19
2022-11-10T03:42:01.085Z,1017.19
2022-11-10T03:43:01.119Z,1017.17
2022-11-10T03:44:01.429Z,1017.2
2022-11-10T03:45:01.462Z,1017.2
2022-11-10T03:46:01.113Z,1017.18
2022-11-10T03:47:01.112Z,1017.18
2022-11-10T03:48:01.126Z,1017.24
2022-11-10T03:49:01.048Z,1017.29
2022-11-10T03:50:01.127Z,1017.27
2022-11-10T03:51:01.148Z,1017.26
2022-11-10T03:52:01.155Z,1017.31
2022-11-10T03:53:01.526Z,1017.31
2022-11-10T03:54:01.143Z,1017.34
2022-11-10T03:55:03.925Z,1017.32
2022-11-10T03:56:01.191Z,1017.38
2022-11-10T03:57:01.115Z,1017.39
2022-11-10T03:58:01.067Z,1017.41
2022-11-10T03:59:01.309Z,1017.4
2022-11-10T04:00:01.319Z,1017.4
2022-11-10T04:01:01.328Z,1017.42
2022-11-10T04:02:01.430Z,1017.41
2022-11-10T04:03:01.100Z,1017.39
2022-11-10T04:04:01.131Z,1017.46
2022-11-10T04:05:01.015Z,1017.42
2022-11-10T04:06:01.151Z,1017.42
2022-11-10T04:07:01.203Z,1017.43
2022-11-10T04:08:01.566Z,1017.48
2022-11-10T04:09:01.733Z,1017.5
2022-11-10T04:10:01.224Z,1017.48
2022-11-10T04:11:01.172Z,1017.5
2022-11-10T04:12:01.179Z,1017.56
2022-11-10T04:13:01.083Z,1017.6
2022-11-10T04:14:01.083Z,1017.57
2022-11-10T04:15:01.082Z,1017.61
2022-11-10T04:16:01.068Z,1017.6
2022-11-10T04:17:01.493Z,1017.67
2022-11-10T04:18:01.090Z,1017.65
2022-11-10T04:19:01.605Z,1017.68
2022-11-10T04:20:01.111Z,1017.65
2022-11-10T04:21:01.897Z,1017.73
2022-11-10T04:22:00.611Z,1017.67
2022-11-10T04:23:00.320Z,1017.7
2022-11-10T04:23:59.924Z,1017.67
2022-11-10T04:24:59.605Z,1017.74
2022-11-10T04:26:01.226Z,1017.73
2022-11-10T04:27:01.159Z,1017.73
2022-11-10T04:28:01.058Z,1017.72
2022-11-10T04:29:01.437Z,1017.78
2022-11-10T04:30:02.092Z,1017.77
2022-11-10T04:31:01.212Z,1017.78
2022-11-10T04:32:01.109Z,1017.81
2022-11-10T04:33:02.924Z,1017.83
2022-11-10T04:34:01.957Z,1017.82
2022-11-10T04:35:01.116Z,1017.79
2022-11-10T04:36:01.155Z,1017.87
2022-11-10T04:37:01.138Z,1017.83
2022-11-10T04:38:05.696Z,1017.86
2022-11-10T04:39:01.323Z,1017.94
2022-11-10T04:40:02.045Z,1017.93
2022-11-10T04:41:02.316Z,1017.9
2022-11-10T04:42:02.764Z,1017.88
2022-11-10T04:43:08.630Z,1017.94
2022-11-10T04:44:01.057Z,1017.98
2022-11-10T04:45:01.063Z,1017.97
2022-11-10T04:46:01.747Z,1017.99
2022-11-10T04:47:01.890Z,1017.99
2022-11-10T04:48:11.480Z,1018.01
2022-11-10T04:49:01.107Z,1017.98
2022-11-10T04:50:01.124Z,1018.02
2022-11-10T04:51:01.101Z,1018.03
2022-11-10T04:52:01.215Z,1018.05
2022-11-10T04:53:15.049Z,1018.06
2022-11-10T04:54:02.806Z,1018.08
2022-11-10T04:55:01.189Z,1018.05
2022-11-10T04:56:01.533Z,1018.11
2022-11-10T04:57:02.124Z,1018.11
2022-11-10T04:58:01.151Z,1018.09
2022-11-10T04:59:01.806Z,1018.15
2022-11-10T05:00:01.068Z,1018.1
2022-11-10T05:01:01.278Z,1018.1
2022-11-10T05:02:01.886Z,1018.13
2022-11-10T05:03:01.079Z,1018.16
2022-11-10T05:04:01.813Z,1018.09
2022-11-10T05:05:01.485Z,1018.11
2022-11-10T05:06:01.104Z,1018.14
2022-11-10T05:07:01.206Z,1018.14
2022-11-10T05:08:01.108Z,1018.16
2022-11-10T05:09:01.150Z,1018.15
2022-11-10T05:10:01.117Z,1018.17
2022-11-10T05:11:01.123Z,1018.19
2022-11-10T05:12:01.146Z,1018.21
2022-11-10T05:13:01.778Z,1018.24
2022-11-10T05:14:01.443Z,1018.22
2022-11-10T05:15:02.305Z,1018.28
2022-11-10T05:16:01.285Z,1018.25
2022-11-10T05:17:01.298Z,1018.28
2022-11-10T05:18:01.344Z,1018.3
2022-11-10T05:19:01.109Z,1018.26
2022-11-10T05:20:01.827Z,1018.27
2022-11-10T05:21:01.951Z,1018.29
2022-11-10T05:22:02.054Z,1018.31
2022-11-10T05:23:01.078Z,1018.33
2022-11-10T05:24:01.462Z,1018.33
2022-11-10T05:25:01.103Z,1018.37
2022-11-10T05:26:01.182Z,1018.36
2022-11-10T05:27:00.820Z,1018.37
2022-11-10T05:28:00.527Z,1018.38
2022-11-10T05:29:00.210Z,1018.4
2022-11-10T05:29:59.945Z,1018.36
2022-11-10T05:30:59.648Z,1018.42
2022-11-10T05:32:01.708Z,1018.45
2022-11-10T05:33:01.430Z,1018.46
2022-11-10T05:34:04.173Z,1018.45
2022-11-10T05:35:01.145Z,1018.47
2022-11-10T05:36:01.113Z,1018.49
2022-11-10T05:37:01.399Z,1018.5
2022-11-10T05:38:01.256Z,1018.51
2022-11-10T05:39:01.107Z,1018.48
2022-11-10T05:40:01.489Z,1018.52
2022-11-10T05:41:01.238Z,1018.51
2022-11-10T05:42:01.152Z,1018.57
2022-11-10T05:43:01.217Z,1018.57
2022-11-10T05:44:01.147Z,1018.57
2022-11-10T05:45:01.551Z,1018.53
2022-11-10T05:46:01.176Z,1018.59
2022-11-10T05:47:01.178Z,1018.6
2022-11-10T05:48:01.078Z,1018.62
2022-11-10T05:49:01.388Z,1018.58
2022-11-10T05:50:01.897Z,1018.63
2022-11-10T05:51:01.094Z,1018.65
2022-11-10T05:52:01.328Z,1018.66
2022-11-10T05:53:01.318Z,1018.65
2022-11-10T05:54:01.097Z,1018.71
2022-11-10T05:55:01.060Z,1018.73
2022-11-10T05:56:01.191Z,1018.73
2022-11-10T05:57:01.877Z,1018.74
2022-11-10T05:58:01.119Z,1018.79
2022-11-10T05:59:01.239Z,1018.8
2022-11-10T06:00:01.079Z,1018.8
2022-11-10T06:01:01.268Z,1018.82
2022-11-10T06:02:01.963Z,1018.82
2022-11-10T06:03:01.056Z,1018.88
2022-11-10T06:04:00.799Z,1018.84
2022-11-10T06:05:01.056Z,1018.97
2022-11-10T06:06:02.083Z,1018.98
2022-11-10T06:07:01.260Z,1018.97
2022-11-10T06:08:01.099Z,1019.05
2022-11-10T06:09:01.766Z,1019.05
2022-11-10T06:10:01.944Z,1019.07
2022-11-10T06:11:01.900Z,1019.12
2022-11-10T06:12:02.072Z,1019.15
2022-11-10T06:13:00.544Z,1019.17
2022-11-10T06:14:00.372Z,1019.19
2022-11-10T06:14:59.961Z,1019.18
2022-11-10T06:15:59.579Z,1019.23
2022-11-10T06:17:02.110Z,1019.23
2022-11-10T06:18:01.523Z,1019.29
2022-11-10T06:19:03.815Z,1019.34
2022-11-10T06:20:01.091Z,1019.41
2022-11-10T06:21:01.061Z,1019.41
2022-11-10T06:22:06.445Z,1019.42
2022-11-10T06:23:01.113Z,1019.46
2022-11-10T06:24:06.189Z,1019.52
2022-11-10T06:25:01.426Z,1019.5
2022-11-10T06:26:02.347Z,1019.49
2022-11-10T06:27:01.158Z,1019.51
2022-11-10T06:28:01.110Z,1019.54
2022-11-10T06:29:09.752Z,1019.57
2022-11-10T06:30:01.090Z,1019.62
2022-11-10T06:31:01.437Z,1019.63
2022-11-10T06:32:01.522Z,1019.63
2022-11-10T06:33:00.616Z,1019.68
2022-11-10T06:34:12.492Z,1019.68
2022-11-10T06:35:01.804Z,1019.74
2022-11-10T06:36:01.093Z,1019.77
2022-11-10T06:37:01.916Z,1019.77
2022-11-10T06:38:01.463Z,1019.86
2022-11-10T06:39:17.372Z,1019.84
2022-11-10T06:40:01.702Z,1019.87
2022-11-10T06:41:01.123Z,1019.85
2022-11-10T06:42:01.105Z,1019.86
2022-11-10T06:43:01.360Z,1019.94
2022-11-10T06:44:01.238Z,1019.97
2022-11-10T06:45:01.104Z,1019.96
2022-11-10T06:46:01.181Z,1019.98
2022-11-10T06:47:01.146Z,1020.02
2022-11-10T06:48:01.317Z,1020
2022-11-10T06:49:01.177Z,1020.02
2022-11-10T06:50:01.648Z,1020.07
2022-11-10T06:51:02.272Z,1020.09
2022-11-10T06:52:01.488Z,1020.09
2022-11-10T06:53:01.144Z,1020.13
2022-11-10T06:54:01.502Z,1020.12
2022-11-10T06:55:00.895Z,1020.16
2022-11-10T06:56:01.083Z,1020.23
2022-11-10T06:57:01.133Z,1020.22
2022-11-10T06:58:01.098Z,1020.22
2022-11-10T06:59:01.108Z,1020.28
2022-11-10T07:00:00.986Z,1020.31
2022-11-10T07:01:01.395Z,1020.29
2022-11-10T07:02:02.497Z,1020.33
2022-11-10T07:03:01.199Z,1020.3
2022-11-10T07:04:20.206Z,1020.3
2022-11-10T07:05:01.147Z,1020.33
2022-11-10T07:06:01.189Z,1020.35
2022-11-10T07:07:01.342Z,1020.36
2022-11-10T07:08:01.481Z,1020.37
2022-11-10T07:09:02.599Z,1020.42
2022-11-10T07:10:06.538Z,1020.46
2022-11-10T07:11:01.227Z,1020.45
2022-11-10T07:12:01.110Z,1020.48
2022-11-10T07:13:01.001Z,1020.52
2022-11-10T07:14:02.171Z,1020.55
2022-11-10T07:15:05.679Z,1020.56
2022-11-10T07:16:02.120Z,1020.55
2022-11-10T07:17:02.215Z,1020.55
2022-11-10T07:18:01.520Z,1020.6
2022-11-10T07:19:02.042Z,1020.6
2022-11-10T07:20:01.128Z,1020.67
2022-11-10T07:21:01.181Z,1020.66
2022-11-10T07:22:01.954Z,1020.69
2022-11-10T07:23:01.181Z,1020.72
2022-11-10T07:24:01.047Z,1020.75
2022-11-10T07:25:01.445Z,1020.75
2022-11-10T07:26:01.231Z,1020.8
2022-11-10T07:27:01.410Z,1020.8
2022-11-10T07:28:01.880Z,1020.87
2022-11-10T07:29:01.090Z,1020.91
2022-11-10T07:30:00.774Z,1020.96
2022-11-10T07:31:01.148Z,1020.97
2022-11-10T07:32:01.105Z,1020.95
2022-11-10T07:33:00.935Z,1020.97
2022-11-10T07:34:01.726Z,1021.03
2022-11-10T07:35:01.918Z,1021.06
2022-11-10T07:36:01.682Z,1021.1
2022-11-10T07:37:00.636Z,1021.09
2022-11-10T07:38:00.423Z,1021.13
2022-11-10T07:39:00.044Z,1021.13
2022-11-10T07:39:59.797Z,1021.14
2022-11-10T07:41:01.947Z,1021.18
2022-11-10T07:42:01.468Z,1021.17
2022-11-10T07:43:01.832Z,1021.14
2022-11-10T07:44:01.458Z,1021.18
2022-11-10T07:45:01.603Z,1021.2
2022-11-10T07:46:01.161Z,1021.24
2022-11-10T07:47:01.164Z,1021.26
2022-11-10T07:48:01.159Z,1021.27
2022-11-10T07:49:01.158Z,1021.27
2022-11-10T07:50:01.067Z,1021.29
2022-11-10T07:51:01.152Z,1021.32
2022-11-10T07:52:01.352Z,1021.34
2022-11-10T07:53:00.840Z,1021.33
2022-11-10T07:54:03.681Z,1021.4
2022-11-10T07:55:01.932Z,1021.38
2022-11-10T07:56:01.308Z,1021.39
2022-11-10T07:57:01.843Z,1021.41
2022-11-10T07:58:00.646Z,1021.42
2022-11-10T07:59:00.241Z,1021.43
2022-11-10T08:00:04.835Z,1021.46
2022-11-10T08:01:02.552Z,1021.49
2022-11-10T08:02:01.350Z,1021.51
2022-11-10T08:03:01.367Z,1021.48
2022-11-10T08:04:01.437Z,1021.51
2022-11-10T08:05:06.932Z,1021.53
2022-11-10T08:06:01.124Z,1021.55
2022-11-10T08:07:01.471Z,1021.58
2022-11-10T08:08:01.146Z,1021.58
2022-11-10T08:09:01.130Z,1021.62
2022-11-10T08:10:09.783Z,1021.65
2022-11-10T08:11:01.166Z,1021.62
2022-11-10T08:12:01.155Z,1021.67
2022-11-10T08:13:00.852Z,1021.65
2022-11-10T08:14:01.181Z,1021.68
2022-11-10T08:15:14.184Z,1021.77
2022-11-10T08:16:01.492Z,1021.77
2022-11-10T08:17:01.091Z,1021.77
2022-11-10T08:18:01.166Z,1021.77
2022-11-10T08:19:01.113Z,1021.81
2022-11-10T08:20:14.561Z,1021.78
2022-11-10T08:21:01.120Z,1021.79
2022-11-10T08:22:01.125Z,1021.77
2022-11-10T08:23:01.441Z,1021.8
2022-11-10T08:24:02.077Z,1021.8
2022-11-10T08:25:16.882Z,1021.84
2022-11-10T08:26:01.260Z,1021.83
2022-11-10T08:27:02.302Z,1021.86
2022-11-10T08:28:02.167Z,1021.81
2022-11-10T08:29:01.255Z,1021.91
2022-11-10T08:30:01.378Z,1021.93
2022-11-10T08:31:05.360Z,1021.97
2022-11-10T08:32:01.208Z,1021.93
2022-11-10T08:33:00.915Z,1021.98
2022-11-10T08:34:01.277Z,1022.03
2022-11-10T08:35:01.259Z,1022.06
2022-11-10T08:36:02.138Z,1022.06
2022-11-10T08:37:02.838Z,1022.07
2022-11-10T08:38:04.086Z,1022.06
2022-11-10T08:39:01.965Z,1022.09
2022-11-10T08:40:01.127Z,1022.07
2022-11-10T08:41:01.139Z,1022.11
2022-11-10T08:42:02.168Z,1022.1
2022-11-10T08:43:01.273Z,1022.09
2022-11-10T08:44:01.711Z,1022.14
2022-11-10T08:45:01.169Z,1022.13
2022-11-10T08:46:01.468Z,1022.12
2022-11-10T08:47:01.069Z,1022.14
2022-11-10T08:48:01.090Z,1022.17
2022-11-10T08:49:01.045Z,1022.15
2022-11-10T08:50:01.540Z,1022.12
2022-11-10T08:51:01.199Z,1022.1
2022-11-10T08:52:01.503Z,1022.18
2022-11-10T08:53:04.225Z,1022.19
2022-11-10T08:54:01.094Z,1022.19
2022-11-10T08:55:00.920Z,1022.22
2022-11-10T08:56:01.280Z,1022.27
2022-11-10T08:57:00.661Z,1022.34
2022-11-10T08:58:00.656Z,1022.35
2022-11-10T08:59:00.248Z,1022.31
2022-11-10T09:00:00.260Z,1022.32
2022-11-10T09:00:59.939Z,1022.4
2022-11-10T09:01:59.629Z,1022.34
2022-11-10T09:03:01.704Z,1022.36
2022-11-10T09:04:01.218Z,1022.34
2022-11-10T09:05:01.988Z,1022.34
2022-11-10T09:06:01.221Z,1022.31
2022-11-10T09:07:01.985Z,1022.37
2022-11-10T09:08:02.123Z,1022.43
2022-11-10T09:09:01.250Z,1022.39
2022-11-10T09:10:07.090Z,1022.42
2022-11-10T09:11:01.285Z,1022.47
2022-11-10T09:12:01.136Z,1022.51
2022-11-10T09:13:01.518Z,1022.51
2022-11-10T09:14:01.222Z,1022.51
2022-11-10T09:15:01.996Z,1022.48
2022-11-10T09:16:01.881Z,1022.5
2022-11-10T09:17:01.576Z,1022.52
2022-11-10T09:18:01.146Z,1022.53
2022-11-10T09:19:01.548Z,1022.55
2022-11-10T09:20:01.139Z,1022.55
2022-11-10T09:21:01.331Z,1022.58
2022-11-10T09:22:04.025Z,1022.65
2022-11-10T09:23:02.346Z,1022.68
2022-11-10T09:24:01.098Z,1022.66
2022-11-10T09:25:01.052Z,1022.71
2022-11-10T09:26:01.142Z,1022.69
2022-11-10T09:27:01.132Z,1022.78
2022-11-10T09:28:01.134Z,1022.72
2022-11-10T09:29:01.133Z,1022.73
2022-11-10T09:30:01.145Z,1022.8
2022-11-10T09:31:02.013Z,1022.76
2022-11-10T09:32:01.155Z,1022.84
2022-11-10T09:33:01.105Z,1022.87
2022-11-10T09:34:00.852Z,1022.89
2022-11-10T09:35:00.452Z,1022.93
2022-11-10T09:36:00.064Z,1022.92
2022-11-10T09:36:59.863Z,1022.9
2022-11-10T09:38:02.517Z,1022.94
2022-11-10T09:39:04.871Z,1022.92
2022-11-10T09:40:01.697Z,1022.93
2022-11-10T09:41:01.498Z,1023
2022-11-10T09:42:01.129Z,1022.95
2022-11-10T09:43:01.126Z,1023
2022-11-10T09:44:01.124Z,1022.99
2022-11-10T09:45:01.333Z,1023
2022-11-10T09:46:01.160Z,1023.03
2022-11-10T09:47:01.284Z,1022.99
2022-11-10T09:48:01.299Z,1022.99
2022-11-10T09:49:01.288Z,1023
2022-11-10T09:50:01.879Z,1023.04
2022-11-10T09:51:02.774Z,1023.06
2022-11-10T09:52:01.071Z,1023.08
2022-11-10T09:53:01.972Z,1023.07
2022-11-10T09:54:01.450Z,1023.04
2022-11-10T09:55:01.106Z,1023.06
2022-11-10T09:56:05.463Z,1023
2022-11-10T09:57:01.105Z,1023.01
2022-11-10T09:58:02.337Z,1023.03
2022-11-10T09:59:01.419Z,1023.07
2022-11-10T10:00:01.214Z,1023.04
2022-11-10T10:01:09.166Z,1023.04
2022-11-10T10:02:02.720Z,1023.07
2022-11-10T10:03:01.149Z,1023.07
2022-11-10T10:04:01.148Z,1023.02
2022-11-10T10:05:01.070Z,1023.06
2022-11-10T10:06:11.308Z,1023.07
2022-11-10T10:07:16.589Z,1023.02
2022-11-10T10:08:01.652Z,1023.05
2022-11-10T10:09:02.593Z,1023.04
2022-11-10T10:10:01.305Z,1023.1
2022-11-10T10:11:13.802Z,1023.09
2022-11-10T10:12:01.494Z,1023.12
2022-11-10T10:13:02.131Z,1023.09
2022-11-10T10:14:01.016Z,1023.11
2022-11-10T10:15:01.115Z,1023.18
2022-11-10T10:16:16.583Z,1023.1
2022-11-10T10:17:01.125Z,1023.17
2022-11-10T10:18:01.156Z,1023.18
2022-11-10T10:19:01.186Z,1023.18
2022-11-10T10:20:01.173Z,1023.22
2022-11-10T10:21:01.125Z,1023.2
2022-11-10T10:22:01.517Z,1023.2
2022-11-10T10:23:01.081Z,1023.21
2022-11-10T10:24:12.318Z,1023.19
2022-11-10T10:25:01.871Z,1023.19
2022-11-10T10:26:01.487Z,1023.18
2022-11-10T10:27:01.112Z,1023.18
2022-11-10T10:28:01.097Z,1023.19
2022-11-10T10:29:01.269Z,1023.19
2022-11-10T10:30:01.888Z,1023.16
2022-11-10T10:31:02.055Z,1023.18
2022-11-10T10:32:02.331Z,1023.12
2022-11-10T10:33:01.392Z,1023.09
2022-11-10T10:34:01.460Z,1023.11
2022-11-10T10:35:02.621Z,1023.09
2022-11-10T10:36:01.416Z,1023.09
2022-11-10T10:37:01.184Z,1023.11
2022-11-10T10:38:01.251Z,1023.08
2022-11-10T10:39:01.087Z,1023.1
2022-11-10T10:40:01.084Z,1023.08
2022-11-10T10:41:01.372Z,1023.11
2022-11-10T10:42:01.203Z,1023.09
2022-11-10T10:43:01.322Z,1023.12
2022-11-10T10:44:00.889Z,1023.1
2022-11-10T10:45:00.819Z,1023.1
2022-11-10T10:46:01.492Z,1023.12
2022-11-10T10:47:01.300Z,1023.09
2022-11-10T10:48:01.412Z,1023.07
2022-11-10T10:49:26.823Z,1023.05
2022-11-10T10:50:01.407Z,1023.09
2022-11-10T10:51:01.403Z,1023.1
2022-11-10T10:52:01.525Z,1023.11
2022-11-10T10:53:02.073Z,1023.17
2022-11-10T10:54:00.762Z,1023.15
2022-11-10T10:55:02.602Z,1023.14
2022-11-10T10:56:02.315Z,1023.1
2022-11-10T10:57:01.608Z,1023.19
2022-11-10T10:58:01.139Z,1023.21
2022-11-10T10:59:01.090Z,1023.19
2022-11-10T11:00:01.203Z,1023.2
2022-11-10T11:01:01.185Z,1023.21
2022-11-10T11:02:01.503Z,1023.19
2022-11-10T11:03:04.467Z,1023.19
2022-11-10T11:04:01.359Z,1023.19
2022-11-10T11:05:02.074Z,1023.13
2022-11-10T11:06:01.351Z,1023.19
2022-11-10T11:07:01.195Z,1023.17
2022-11-10T11:08:01.173Z,1023.14
2022-11-10T11:09:01.369Z,1023.08
2022-11-10T11:10:02.219Z,1023.04
2022-11-10T11:11:01.071Z,1023.09
2022-11-10T11:12:01.135Z,1023.08
2022-11-10T11:13:01.312Z,1023.07
2022-11-10T11:14:01.029Z,1023.1
2022-11-10T11:15:01.462Z,1023.13
2022-11-10T11:16:01.488Z,1023.11
2022-11-10T11:17:01.104Z,1023.14
2022-11-10T11:18:01.125Z,1023.16
2022-11-10T11:19:01.145Z,1023.15
2022-11-10T11:20:01.155Z,1023.22
2022-11-10T11:21:01.160Z,1023.17
2022-11-10T11:22:01.469Z,1023.17
2022-11-10T11:23:01.268Z,1023.18
2022-11-10T11:24:01.158Z,1023.18
2022-11-10T11:25:01.166Z,1023.16
2022-11-10T11:26:01.166Z,1023.17
2022-11-10T11:27:01.218Z,1023.18
2022-11-10T11:28:01.075Z,1023.12
2022-11-10T11:29:01.327Z,1023.2
2022-11-10T11:30:02.289Z,1023.2
2022-11-10T11:31:01.096Z,1023.16
2022-11-10T11:32:01.139Z,1023.15
2022-11-10T11:33:01.110Z,1023.24
2022-11-10T11:33:59.972Z,1023.24
2022-11-10T11:34:59.688Z,1023.28
2022-11-10T11:36:01.476Z,1023.3
2022-11-10T11:37:05.351Z,1023.38
2022-11-10T11:38:01.203Z,1023.35
2022-11-10T11:39:01.625Z,1023.28
2022-11-10T11:40:00.921Z,1023.27
2022-11-10T11:41:00.632Z,1023.28
2022-11-10T11:42:04.411Z,1023.34
2022-11-10T11:43:01.768Z,1023.39
2022-11-10T11:44:02.093Z,1023.39
2022-11-10T11:45:01.379Z,1023.41
2022-11-10T11:46:01.501Z,1023.38
2022-11-10T11:47:07.013Z,1023.39
2022-11-10T11:48:02.105Z,1023.35
2022-11-10T11:49:03.488Z,1023.38
2022-11-10T11:50:02.729Z,1023.38
2022-11-10T11:51:01.558Z,1023.35
2022-11-10T11:52:09.337Z,1023.34
2022-11-10T11:53:01.159Z,1023.37
2022-11-10T11:54:00.892Z,1023.41
2022-11-10T11:55:01.164Z,1023.45
2022-11-10T11:56:01.223Z,1023.45
2022-11-10T11:57:11.672Z,1023.42
2022-11-10T11:58:01.185Z,1023.51
2022-11-10T11:59:01.078Z,1023.44
2022-11-10T12:00:01.109Z,1023.44
2022-11-10T12:01:01.529Z,1023.5
2022-11-10T12:02:16.456Z,1023.5
2022-11-10T12:03:01.241Z,1023.48
2022-11-10T12:04:01.397Z,1023.51
2022-11-10T12:05:01.277Z,1023.53
2022-11-10T12:06:01.205Z,1023.55
2022-11-10T12:07:16.815Z,1023.52
2022-11-10T12:08:01.118Z,1023.52
2022-11-10T12:09:01.141Z,1023.54